createdAt,value
2019-05-01T00:01:19.477Z,100378.43
2019-05-01T00:04:07.196Z,100373.97
2019-05-01T00:06:39.496Z,100373.54
2019-05-01T00:09:12.578Z,100368.59
2019-05-01T00:11:44.161Z,100364.68
2019-05-01T00:14:15.025Z,100367.62
2019-05-01T00:16:45.973Z,100363.70
2019-05-01T00:19:16.652Z,100362.31
2019-05-01T00:21:47.762Z,100363.50
2019-05-01T00:24:18.678Z,100355.31
2019-05-01T00:26:49.737Z,100357.91
2019-05-01T00:29:20.398Z,100364.75
2019-05-01T00:31:51.134Z,100364.54
2019-05-01T00:34:21.880Z,100354.50
2019-05-01T00:36:52.557Z,100361.12
2019-05-01T00:39:23.354Z,100351.41
2019-05-01T00:41:54.021Z,100351.78
2019-05-01T00:44:24.924Z,100347.58
2019-05-01T00:46:55.821Z,100344.80
2019-05-01T00:49:26.834Z,100344.93
2019-05-01T00:51:57.537Z,100342.13
2019-05-01T00:54:29.194Z,100339.77
2019-05-01T00:57:10.911Z,100338.87
2019-05-01T01:00:01.270Z,100334.97
2019-05-01T01:02:35.123Z,100332.25
2019-05-01T01:05:07.484Z,100337.11
2019-05-01T01:07:38.621Z,100334.95
2019-05-01T01:10:09.978Z,100331.45
2019-05-01T01:12:41.037Z,100337.04
2019-05-01T01:15:12.692Z,100333.47
2019-05-01T01:17:43.368Z,100329.30
2019-05-01T01:20:14.246Z,100322.47
2019-05-01T01:22:44.998Z,100312.20
2019-05-01T01:25:16.018Z,100313.88
2019-05-01T01:27:46.822Z,100307.08
2019-05-01T01:30:17.736Z,100312.98
2019-05-01T01:32:48.828Z,100308.19
2019-05-01T01:35:19.861Z,100306.65
2019-05-01T01:37:50.900Z,100295.34
2019-05-01T01:40:21.657Z,100289.62
2019-05-01T01:42:55.961Z,100287.41
2019-05-01T01:45:33.337Z,100254.78
2019-05-01T01:48:14.728Z,100283.84
2019-05-01T01:50:47.410Z,100291.03
2019-05-01T01:53:22.169Z,100285.16
2019-05-01T01:55:54.173Z,100288.37
2019-05-01T01:58:25.552Z,100282.80
2019-05-01T02:01:09.330Z,100285.38
2019-05-01T02:03:34.607Z,100278.26
2019-05-01T02:06:05.369Z,100274.77
2019-05-01T02:08:36.391Z,100273.59
2019-05-01T02:11:07.462Z,100271.99
2019-05-01T02:13:38.525Z,100272.89
2019-05-01T02:16:09.427Z,100276.80
2019-05-01T02:18:40.187Z,100279.20
2019-05-01T02:21:10.852Z,100271.27
2019-05-01T02:23:41.508Z,100268.20
2019-05-01T02:26:13.998Z,100264.72
2019-05-01T02:28:59.508Z,100254.97
2019-05-01T02:31:35.794Z,100259.03
2019-05-01T02:34:07.976Z,100259.39
2019-05-01T02:36:39.862Z,100260.83
2019-05-01T02:39:10.873Z,100259.39
2019-05-01T02:41:44.334Z,100259.52
2019-05-01T02:44:28.601Z,100259.50
2019-05-01T02:47:03.777Z,100255.49
2019-05-01T02:49:53.969Z,100255.83
2019-05-01T02:52:32.405Z,100248.73
2019-05-01T02:55:06.867Z,100253.81
2019-05-01T02:57:41.169Z,100252.48
2019-05-01T03:00:13.490Z,100262.28
2019-05-01T03:02:44.182Z,100255.66
2019-05-01T03:05:15.440Z,100264.81
2019-05-01T03:07:47.820Z,100266.06
2019-05-01T03:10:19.178Z,100266.55
2019-05-01T03:12:53.035Z,100275.75
2019-05-01T03:15:26.371Z,100275.19
2019-05-01T03:18:12.770Z,100277.70
2019-05-01T03:20:51.582Z,100271.97
2019-05-01T03:23:23.887Z,100272.75
2019-05-01T03:25:55.388Z,100264.94
2019-05-01T03:28:27.321Z,100267.39
2019-05-01T03:30:58.680Z,100261.41
2019-05-01T03:33:29.984Z,100271.36
2019-05-01T03:36:00.824Z,100270.80
2019-05-01T03:38:32.411Z,100271.16
2019-05-01T03:41:04.293Z,100252.58
2019-05-01T03:43:36.276Z,100251.26
2019-05-01T03:46:07.489Z,100254.36
2019-05-01T03:48:38.424Z,100246.19
2019-05-01T03:51:10.396Z,100240.84
2019-05-01T03:53:41.970Z,100234.06
2019-05-01T03:56:12.992Z,100238.04
2019-05-01T03:58:43.955Z,100236.00
2019-05-01T04:01:18.980Z,100231.70
2019-05-01T04:03:54.592Z,100229.80
2019-05-01T04:06:25.256Z,100233.41
2019-05-01T04:08:56.676Z,100225.91
2019-05-01T04:11:27.914Z,100223.33
2019-05-01T04:13:59.631Z,100226.89
2019-05-01T04:16:31.194Z,100221.42
2019-05-01T04:19:02.193Z,100226.52
2019-05-01T04:21:35.354Z,100217.91
2019-05-01T04:24:06.610Z,100225.76
2019-05-01T04:26:38.569Z,100228.12
2019-05-01T04:29:14.935Z,100230.70
2019-05-01T04:31:47.842Z,100236.00
2019-05-01T04:34:23.281Z,100233.09
2019-05-01T04:36:59.394Z,100228.73
2019-05-01T04:39:30.186Z,100223.30
2019-05-01T04:42:01.614Z,100236.45
2019-05-01T04:44:32.324Z,100246.63
2019-05-01T04:47:04.062Z,100241.45
2019-05-01T04:49:34.999Z,100255.97
2019-05-01T04:52:07.619Z,100264.88
2019-05-01T04:54:38.853Z,100261.98
2019-05-01T04:57:09.899Z,100265.44
2019-05-01T04:59:41.849Z,100272.23
2019-05-01T05:02:14.505Z,100257.61
2019-05-01T05:04:45.567Z,100253.80
2019-05-01T05:07:17.843Z,100215.53
2019-05-01T05:09:49.749Z,100246.69
2019-05-01T05:12:25.099Z,100241.20
2019-05-01T05:15:14.314Z,100235.35
2019-05-01T05:17:45.701Z,100240.36
2019-05-01T05:20:16.936Z,100243.06
2019-05-01T05:22:47.871Z,100233.13
2019-05-01T05:25:19.292Z,100236.00
2019-05-01T05:27:51.929Z,100229.53
2019-05-01T05:30:26.327Z,100233.89
2019-05-01T05:32:59.337Z,100236.73
2019-05-01T05:35:33.195Z,100243.77
2019-05-01T05:38:20.280Z,100233.02
2019-05-01T05:40:52.350Z,100232.39
2019-05-01T05:43:23.891Z,100232.66
2019-05-01T05:45:55.442Z,100245.30
2019-05-01T05:48:26.958Z,100240.86
2019-05-01T05:51:14.441Z,100240.03
2019-05-01T05:53:53.987Z,100235.66
2019-05-01T05:56:30.413Z,100244.22
2019-05-01T05:59:05.978Z,100242.55
2019-05-01T06:01:57.149Z,100240.06
2019-05-01T06:04:35.465Z,100242.55
2019-05-01T06:07:24.867Z,100244.19
2019-05-01T06:10:01.014Z,100233.94
2019-05-01T06:12:46.887Z,100228.99
2019-05-01T06:15:17.087Z,100243.19
2019-05-01T06:17:49.413Z,100245.30
2019-05-01T06:20:38.275Z,100246.50
2019-05-01T06:23:15.717Z,100236.87
2019-05-01T06:25:54.080Z,100236.22
2019-05-01T06:28:29.392Z,100208.61
2019-05-01T06:31:00.497Z,100226.96
2019-05-01T06:33:43.415Z,100228.08
2019-05-01T06:36:04.276Z,100228.47
2019-05-01T06:38:36.107Z,100225.33
2019-05-01T06:41:07.844Z,100229.33
2019-05-01T06:43:44.545Z,100234.66
2019-05-01T06:46:16.776Z,100244.98
2019-05-01T06:48:54.709Z,100242.30
2019-05-01T06:51:34.372Z,100238.33
2019-05-01T06:54:16.325Z,100236.16
2019-05-01T06:56:45.341Z,100239.66
2019-05-01T06:59:18.046Z,100246.31
2019-05-01T07:01:53.072Z,100255.17
2019-05-01T07:04:25.067Z,100250.98
2019-05-01T07:06:56.498Z,100237.00
2019-05-01T07:09:28.428Z,100234.33
2019-05-01T07:12:04.302Z,100234.34
2019-05-01T07:14:35.795Z,100245.66
2019-05-01T07:17:08.907Z,100246.49
2019-05-01T07:19:56.871Z,100247.33
2019-05-01T07:22:27.911Z,100240.98
2019-05-01T07:25:03.792Z,100234.27
2019-05-01T07:27:31.717Z,100235.27
2019-05-01T07:30:19.603Z,100239.08
2019-05-01T07:32:52.102Z,100233.80
2019-05-01T07:35:23.029Z,100228.13
2019-05-01T07:37:57.592Z,100229.33
2019-05-01T07:40:30.094Z,100234.02
2019-05-01T07:43:02.972Z,100228.75
2019-05-01T07:45:33.898Z,100223.66
2019-05-01T07:48:05.809Z,100222.69
2019-05-01T07:50:38.275Z,100230.52
2019-05-01T07:53:09.288Z,100226.30
2019-05-01T07:55:40.490Z,100222.48
2019-05-01T07:58:15.890Z,100230.58
2019-05-01T08:00:52.727Z,100227.31
2019-05-01T08:03:23.977Z,100236.77
2019-05-01T08:05:55.650Z,100239.28
2019-05-01T08:08:26.684Z,100234.66
2019-05-01T08:10:59.939Z,100236.61
2019-05-01T08:13:30.640Z,100234.41
2019-05-01T08:16:07.025Z,100238.65
2019-05-01T08:18:42.623Z,100237.95
2019-05-01T08:21:21.204Z,100242.25
2019-05-01T08:23:50.429Z,100234.74
2019-05-01T08:26:21.091Z,100235.75
2019-05-01T08:29:02.951Z,100238.96
2019-05-01T08:31:33.054Z,100236.10
2019-05-01T08:34:08.925Z,100232.55
2019-05-01T08:36:42.711Z,100233.52
2019-05-01T08:39:13.963Z,100228.88
2019-05-01T08:41:44.831Z,100229.15
2019-05-01T08:44:15.857Z,100235.19
2019-05-01T08:46:57.250Z,100232.47
2019-05-01T08:49:29.598Z,100230.32
2019-05-01T08:52:00.274Z,100225.67
2019-05-01T08:54:33.633Z,100231.62
2019-05-01T08:57:04.563Z,100226.52
2019-05-01T09:02:17.015Z,100226.39
2019-05-01T09:05:01.345Z,100221.31
2019-05-01T09:07:24.067Z,100223.31
2019-05-01T09:09:54.676Z,100217.71
2019-05-01T09:12:26.432Z,100219.79
2019-05-01T09:14:57.674Z,100218.73
2019-05-01T09:17:28.931Z,100219.38
2019-05-01T09:20:00.063Z,100219.83
2019-05-01T09:22:30.842Z,100219.40
2019-05-01T09:25:01.866Z,100216.17
2019-05-01T09:27:37.258Z,100220.30
2019-05-01T09:30:26.823Z,100223.58
2019-05-01T09:32:57.017Z,100227.80
2019-05-01T09:35:27.830Z,100226.85
2019-05-01T09:37:58.840Z,100225.59
2019-05-01T09:40:29.807Z,100219.75
2019-05-01T09:43:03.790Z,100223.02
2019-05-01T09:45:43.494Z,100214.20
2019-05-01T09:48:14.749Z,100222.89
2019-05-01T09:50:48.229Z,100217.47
2019-05-01T09:53:23.534Z,100222.74
2019-05-01T09:55:59.159Z,100226.69
2019-05-01T09:58:29.900Z,100231.45
2019-05-01T10:01:01.652Z,100222.70
2019-05-01T10:03:32.882Z,100216.83
2019-05-01T10:06:03.980Z,100227.83
2019-05-01T10:08:39.779Z,100213.45
2019-05-01T10:11:07.508Z,100199.87
2019-05-01T10:13:38.223Z,100195.06
2019-05-01T10:16:09.401Z,100189.61
2019-05-01T10:18:40.469Z,100186.86
2019-05-01T10:21:11.525Z,100200.05
2019-05-01T10:23:42.562Z,100186.03
2019-05-01T10:26:19.007Z,100192.02
2019-05-01T10:28:57.711Z,100189.41
2019-05-01T10:31:47.713Z,100186.20
2019-05-01T10:34:28.975Z,100182.03
2019-05-01T10:37:05.910Z,100182.64
2019-05-01T10:39:37.188Z,100183.03
2019-05-01T10:42:08.367Z,100180.79
2019-05-01T10:44:39.136Z,100176.66
2019-05-01T10:47:09.843Z,100172.22
2019-05-01T10:49:40.857Z,100165.61
2019-05-01T10:52:14.371Z,100157.95
2019-05-01T10:54:46.516Z,100152.19
2019-05-01T10:57:17.276Z,100149.59
2019-05-01T10:59:48.395Z,100153.16
2019-05-01T11:02:20.123Z,100140.37
2019-05-01T11:04:51.220Z,100130.58
2019-05-01T11:07:21.932Z,100126.66
2019-05-01T11:09:52.992Z,100130.64
2019-05-01T11:12:24.031Z,100131.18
2019-05-01T11:14:54.789Z,100133.43
2019-05-01T11:17:25.790Z,100124.52
2019-05-01T11:19:56.833Z,100126.38
2019-05-01T11:22:27.522Z,100118.87
2019-05-01T11:24:58.525Z,100126.55
2019-05-01T11:27:29.281Z,100122.63
2019-05-01T11:30:00.321Z,100122.84
2019-05-01T11:32:42.067Z,100117.61
2019-05-01T11:35:29.817Z,100111.59
2019-05-01T11:38:04.989Z,100106.15
2019-05-01T11:40:37.327Z,100114.38
2019-05-01T11:43:08.493Z,100105.40
2019-05-01T11:45:39.529Z,100104.96
2019-05-01T11:48:10.311Z,100100.81
2019-05-01T11:50:41.229Z,100101.97
2019-05-01T11:53:12.332Z,100102.94
2019-05-01T11:55:43.374Z,100100.61
2019-05-01T11:58:16.027Z,100100.20
2019-05-01T12:00:54.434Z,100090.36
2019-05-01T12:03:25.146Z,100102.50
2019-05-01T12:05:56.218Z,100095.97
2019-05-01T12:08:27.006Z,100090.53
2019-05-01T12:10:58.455Z,100093.42
2019-05-01T12:13:29.142Z,100088.54
2019-05-01T12:16:01.855Z,100089.38
2019-05-01T12:18:32.509Z,100087.87
2019-05-01T12:21:03.695Z,100088.88
2019-05-01T12:23:34.443Z,100092.25
2019-05-01T12:26:05.253Z,100092.41
2019-05-01T12:28:36.287Z,100089.66
2019-05-01T12:31:07.148Z,100093.28
2019-05-01T12:33:38.117Z,100086.95
2019-05-01T12:36:09.815Z,100089.84
2019-05-01T12:38:40.546Z,100091.00
2019-05-01T12:41:16.114Z,100083.10
2019-05-01T12:43:47.131Z,100079.03
2019-05-01T12:46:35.765Z,100083.02
2019-05-01T12:49:06.909Z,100083.23
2019-05-01T12:51:39.128Z,100082.72
2019-05-01T12:54:14.357Z,100082.51
2019-05-01T12:56:46.979Z,100075.88
2019-05-01T12:59:18.342Z,100072.62
2019-05-01T13:01:49.169Z,100068.92
2019-05-01T13:04:19.882Z,100071.22
2019-05-01T13:06:55.454Z,100056.39
2019-05-01T13:09:26.176Z,100057.84
2019-05-01T13:11:56.923Z,100059.46
2019-05-01T13:14:27.856Z,100058.25
2019-05-01T13:16:58.554Z,100047.37
2019-05-01T13:19:29.410Z,100049.63
2019-05-01T13:22:00.108Z,100042.96
2019-05-01T13:24:30.981Z,100041.84
2019-05-01T13:27:15.780Z,100036.67
2019-05-01T13:29:54.096Z,100038.30
2019-05-01T13:32:42.000Z,100034.41
2019-05-01T13:35:13.253Z,100030.89
2019-05-01T13:37:44.497Z,100021.44
2019-05-01T13:40:16.430Z,100027.19
2019-05-01T13:42:47.392Z,100020.92
2019-05-01T13:45:18.656Z,100023.47
2019-05-01T13:47:49.615Z,100020.44
2019-05-01T13:50:20.960Z,100019.21
2019-05-01T13:52:52.137Z,100017.85
2019-05-01T13:55:22.914Z,100009.92
2019-05-01T13:57:54.361Z,100002.64
2019-05-01T14:00:27.350Z,100007.23
2019-05-01T14:02:58.277Z,100004.35
2019-05-01T14:05:29.552Z,100003.96
2019-05-01T14:08:00.727Z,100013.69
2019-05-01T14:10:31.818Z,100005.88
2019-05-01T14:13:03.020Z,100004.45
2019-05-01T14:15:33.791Z,99998.09
2019-05-01T14:18:05.158Z,99993.45
2019-05-01T14:20:52.987Z,99996.84
2019-05-01T14:23:31.038Z,99997.48
2019-05-01T14:26:06.173Z,99991.30
2019-05-01T14:28:37.369Z,99985.20
2019-05-01T14:31:08.405Z,99987.48
2019-05-01T14:33:39.674Z,99982.55
2019-05-01T14:36:10.325Z,99983.95
2019-05-01T14:38:41.315Z,99984.03
2019-05-01T14:41:12.105Z,99975.94
2019-05-01T14:43:43.324Z,99979.80
2019-05-01T14:46:14.254Z,99967.75
2019-05-01T14:48:44.954Z,99970.80
2019-05-01T14:51:16.284Z,99964.08
2019-05-01T14:53:47.256Z,99968.27
2019-05-01T14:56:18.972Z,99964.67
2019-05-01T14:58:49.666Z,99959.20
2019-05-01T15:01:20.805Z,99958.45
2019-05-01T15:03:51.770Z,99947.17
2019-05-01T15:06:22.801Z,99945.24
2019-05-01T15:08:53.755Z,99947.20
2019-05-01T15:11:24.475Z,99939.09
2019-05-01T15:13:57.666Z,99947.34
2019-05-01T15:16:30.276Z,99941.88
2019-05-01T15:19:02.992Z,99945.68
2019-05-01T15:21:34.807Z,99949.16
2019-05-01T15:24:06.402Z,99944.20
2019-05-01T15:26:37.113Z,99939.56
2019-05-01T15:29:07.935Z,99946.53
2019-05-01T15:31:39.338Z,99939.42
2019-05-01T15:34:10.032Z,99933.63
2019-05-01T15:36:41.098Z,99934.91
2019-05-01T15:39:13.894Z,99924.70
2019-05-01T15:41:52.048Z,99922.43
2019-05-01T15:44:24.494Z,99921.97
2019-05-01T15:46:55.583Z,99922.42
2019-05-01T15:49:26.534Z,99919.74
2019-05-01T15:51:57.500Z,99922.08
2019-05-01T15:54:28.498Z,99916.91
2019-05-01T15:56:59.497Z,99915.31
2019-05-01T15:59:30.378Z,99913.59
2019-05-01T16:02:01.209Z,99918.39
2019-05-01T16:04:32.420Z,99913.75
2019-05-01T16:07:03.215Z,99911.13
2019-05-01T16:09:34.195Z,99907.74
2019-05-01T16:12:23.938Z,99904.36
2019-05-01T16:14:55.009Z,99897.78
2019-05-01T16:17:25.834Z,99899.80
2019-05-01T16:19:57.944Z,99900.02
2019-05-01T16:22:30.780Z,99896.59
2019-05-01T16:25:01.803Z,99904.14
2019-05-01T16:27:32.807Z,99905.80
2019-05-01T16:30:05.709Z,99900.79
2019-05-01T16:32:37.862Z,99897.98
2019-05-01T16:35:10.031Z,99901.00
2019-05-01T16:37:40.940Z,99902.05
2019-05-01T16:40:14.065Z,99899.32
2019-05-01T16:42:45.152Z,99902.72
2019-05-01T16:45:16.549Z,99891.02
2019-05-01T16:47:47.245Z,99891.25
2019-05-01T16:50:18.108Z,99891.84
2019-05-01T16:52:49.047Z,99890.42
2019-05-01T16:55:19.962Z,99889.05
2019-05-01T16:57:50.997Z,99891.57
2019-05-01T17:00:29.000Z,99890.42
2019-05-01T17:03:04.605Z,99891.14
2019-05-01T17:05:40.375Z,99889.99
2019-05-01T17:08:12.716Z,99888.52
2019-05-01T17:10:45.257Z,99884.88
2019-05-01T17:13:15.959Z,99892.64
2019-05-01T17:15:48.493Z,99890.98
2019-05-01T17:18:20.121Z,99887.44
2019-05-01T17:20:51.189Z,99886.30
2019-05-01T17:23:22.174Z,99885.91
2019-05-01T17:25:53.215Z,99885.28
2019-05-01T17:28:24.008Z,99886.63
2019-05-01T17:30:56.805Z,99891.31
2019-05-01T17:33:28.858Z,99888.56
2019-05-01T17:35:59.929Z,99884.65
2019-05-01T17:38:31.217Z,99881.20
2019-05-01T17:41:01.912Z,99883.87
2019-05-01T17:43:32.603Z,99888.42
2019-05-01T17:46:05.809Z,99882.52
2019-05-01T17:48:36.425Z,99885.02
2019-05-01T17:51:07.175Z,99891.12
2019-05-01T17:53:38.016Z,99878.98
2019-05-01T17:56:10.062Z,99881.59
2019-05-01T17:58:41.609Z,99884.23
2019-05-01T18:01:14.380Z,99886.27
2019-05-01T18:03:52.262Z,99878.95
2019-05-01T18:06:30.689Z,99881.76
2019-05-01T18:09:03.258Z,99880.73
2019-05-01T18:11:35.680Z,99891.36
2019-05-01T18:14:07.782Z,99888.13
2019-05-01T18:16:38.617Z,99885.14
2019-05-01T18:19:10.842Z,99891.59
2019-05-01T18:21:46.596Z,99892.41
2019-05-01T18:24:30.837Z,99891.59
2019-05-01T18:27:06.633Z,99889.72
2019-05-01T18:29:40.101Z,99887.16
2019-05-01T18:32:13.385Z,99895.77
2019-05-01T18:34:44.999Z,99890.17
2019-05-01T18:37:31.241Z,99893.78
2019-05-01T18:40:03.517Z,99895.97
2019-05-01T18:42:34.239Z,99898.05
2019-05-01T18:45:10.954Z,99897.63
2019-05-01T18:47:41.992Z,99895.56
2019-05-01T18:50:13.707Z,99903.01
2019-05-01T18:52:44.821Z,99901.66
2019-05-01T18:55:16.078Z,99897.82
2019-05-01T18:57:47.283Z,99899.39
2019-05-01T19:00:18.334Z,99905.15
2019-05-01T19:02:49.450Z,99905.70
2019-05-01T19:05:20.934Z,99903.18
2019-05-01T19:07:53.665Z,99898.45
2019-05-01T19:10:24.929Z,99904.84
2019-05-01T19:12:56.740Z,99910.22
2019-05-01T19:15:28.566Z,99905.26
2019-05-01T19:18:00.226Z,99904.20
2019-05-01T19:20:31.743Z,99906.06
2019-05-01T19:23:04.269Z,99900.97
2019-05-01T19:25:35.821Z,99904.39
2019-05-01T19:28:08.320Z,99899.53
2019-05-01T19:30:39.620Z,99905.52
2019-05-01T19:33:11.684Z,99903.30
2019-05-01T19:35:43.570Z,99903.08
2019-05-01T19:38:15.072Z,99909.27
2019-05-01T19:40:46.905Z,99906.16
2019-05-01T19:43:18.355Z,99905.56
2019-05-01T19:45:49.846Z,99906.12
2019-05-01T19:48:21.100Z,99902.73
2019-05-01T19:50:52.665Z,99901.48
2019-05-01T19:53:24.284Z,99895.37
2019-05-01T19:55:55.310Z,99889.99
2019-05-01T19:58:26.904Z,99896.20
2019-05-01T20:00:59.569Z,99895.22
2019-05-01T20:03:36.133Z,99897.28
2019-05-01T20:06:07.775Z,99894.70
2019-05-01T20:08:36.811Z,99891.59
2019-05-01T20:11:09.653Z,99892.38
2019-05-01T20:13:41.255Z,99896.30
2019-05-01T20:16:13.102Z,99893.19
2019-05-01T20:18:44.282Z,99891.12
2019-05-01T20:21:15.490Z,99886.63
2019-05-01T20:23:46.754Z,99889.08
2019-05-01T20:26:17.638Z,99889.65
2019-05-01T20:28:49.322Z,99889.73
2019-05-01T20:31:20.913Z,99892.50
2019-05-01T20:33:52.956Z,99891.93
2019-05-01T20:36:23.642Z,99887.37
2019-05-01T20:38:54.843Z,99887.31
2019-05-01T20:41:25.924Z,99885.36
2019-05-01T20:43:56.887Z,99884.33
2019-05-01T20:46:28.188Z,99874.80
2019-05-01T20:49:00.954Z,99881.23
2019-05-01T20:51:32.620Z,99881.95
2019-05-01T20:54:03.617Z,99881.44
2019-05-01T20:56:39.273Z,99878.58
2019-05-01T20:59:10.315Z,99876.30
2019-05-01T21:01:41.436Z,99884.02
2019-05-01T21:04:16.415Z,99875.06
2019-05-01T21:07:04.868Z,99878.90
2019-05-01T21:09:47.344Z,99875.41
2019-05-01T21:12:10.223Z,99876.98
2019-05-01T21:14:45.330Z,99880.16
2019-05-01T21:17:15.104Z,99883.19
2019-05-01T21:19:46.538Z,99880.91
2019-05-01T21:22:17.757Z,99876.39
2019-05-01T21:24:48.422Z,99873.40
2019-05-01T21:27:19.494Z,99874.60
2019-05-01T21:29:50.181Z,99867.33
2019-05-01T21:32:26.135Z,99862.89
2019-05-01T21:34:53.941Z,99859.71
2019-05-01T21:37:24.649Z,99857.54
2019-05-01T21:39:55.713Z,99860.50
2019-05-01T21:42:26.464Z,99855.61
2019-05-01T21:44:57.247Z,99857.78
2019-05-01T21:47:28.884Z,99859.27
2019-05-01T21:49:59.667Z,99855.64
2019-05-01T21:52:30.836Z,99859.91
2019-05-01T21:55:01.860Z,99852.59
2019-05-01T21:57:37.305Z,99852.66
2019-05-01T22:00:09.272Z,99860.05
2019-05-01T22:02:46.381Z,99849.68
2019-05-01T22:05:14.749Z,99856.28
2019-05-01T22:07:45.419Z,99849.98
2019-05-01T22:10:16.750Z,99846.15
2019-05-01T22:12:49.012Z,99843.88
2019-05-01T22:15:35.107Z,99848.45
2019-05-01T22:18:14.085Z,99851.03
2019-05-01T22:20:55.291Z,99851.97
2019-05-01T22:23:32.102Z,99851.25
2019-05-01T22:26:03.209Z,99846.78
2019-05-01T22:28:44.759Z,99847.97
2019-05-01T22:31:32.714Z,99847.08
2019-05-01T22:34:05.520Z,99845.62
2019-05-01T22:36:36.541Z,99850.68
2019-05-01T22:39:08.790Z,99846.97
2019-05-01T22:41:41.075Z,99849.77
2019-05-01T22:44:17.917Z,99846.09
2019-05-01T22:46:45.928Z,99846.27
2019-05-01T22:49:16.944Z,99845.02
2019-05-01T22:51:47.986Z,99840.92
2019-05-01T22:54:18.916Z,99836.11
2019-05-01T22:56:49.971Z,99835.61
2019-05-01T22:59:22.043Z,99834.66
2019-05-01T23:01:54.369Z,99827.35
2019-05-01T23:04:26.471Z,99835.73
2019-05-01T23:06:57.294Z,99835.44
2019-05-01T23:09:30.276Z,99828.47
2019-05-01T23:12:01.113Z,99830.50
2019-05-01T23:14:32.475Z,99828.88
2019-05-01T23:17:14.074Z,99827.41
2019-05-01T23:19:45.207Z,99825.07
2019-05-01T23:22:16.201Z,99821.61
2019-05-01T23:24:46.883Z,99816.80
2019-05-01T23:27:17.590Z,99813.37
2019-05-01T23:29:48.278Z,99815.09
2019-05-01T23:32:19.387Z,99807.16
2019-05-01T23:34:50.090Z,99813.77
2019-05-01T23:37:20.772Z,99809.73
2019-05-01T23:39:51.775Z,99805.77
2019-05-01T23:42:23.013Z,99801.06
2019-05-01T23:44:54.155Z,99798.80
2019-05-01T23:47:25.223Z,99806.89
2019-05-01T23:49:56.162Z,99797.31
2019-05-01T23:52:27.143Z,99792.45
2019-05-01T23:54:58.128Z,99785.81
2019-05-01T23:57:29.216Z,99777.81
